Time;durP1;ratioP1;P1;durP2;ratioP2;P2;SDS_P1;SDS_P2;PMS_P1;PMS_P2;Temp;Humidity;BMP_temperature;BMP_pressure;BME280_temperature;BME280_humidity;BME280_pressure;Samples;Min_cycle;Max_cycle;Signal;HPM_P1;HPM_P2
2021/12/21 00:00:53;;;;;;;5.68;2.53;;;-2.30;99.90;;;;;;20725857;28;20042;-53
2021/12/21 00:11:16;;;;;;;7.40;3.03;;;-2.20;99.90;;;;;;20490781;28;20567;-48
2021/12/21 00:21:56;;;;;;;4.45;2.50;;;-2.00;99.90;;;;;;20550739;28;20136;-48
2021/12/21 00:31:47;;;;;;;7.00;2.58;;;-1.70;99.90;;;;;;20553304;28;20457;-48
2021/12/21 00:41:50;;;;;;;4.07;2.33;;;-1.50;99.90;;;;;;20609658;28;20049;-50
2021/12/21 00:51:53;;;;;;;5.55;2.63;;;-1.00;99.90;;;;;;20792065;28;20088;-49
2021/12/21 01:01:55;;;;;;;6.30;3.00;;;-0.60;99.90;;;;;;20722813;28;20046;-49
2021/12/21 01:12:04;;;;;;;5.85;2.90;;;-0.50;99.90;;;;;;20721610;28;20037;-49
2021/12/21 01:32:19;;;;;;;6.57;3.22;;;0.10;99.90;;;;;;20720960;28;20034;-49
2021/12/21 01:52:27;;;;;;;6.90;3.35;;;0.40;99.90;;;;;;20800640;28;20398;-49
2021/12/21 02:02:29;;;;;;;5.90;2.95;;;0.40;99.90;;;;;;20799696;28;20394;-50
2021/12/21 02:12:32;;;;;;;9.77;4.10;;;0.50;99.90;;;;;;20799315;28;20111;-50
2021/12/21 02:22:42;;;;;;;6.63;3.55;;;0.50;99.90;;;;;;20799323;28;20038;-50
2021/12/21 02:32:45;;;;;;;6.53;3.28;;;0.60;99.90;;;;;;20811885;28;20067;-50
2021/12/21 02:42:48;;;;;;;5.72;3.08;;;0.70;99.90;;;;;;20814007;28;20058;-50
2021/12/21 02:52:51;;;;;;;5.90;3.03;;;0.70;99.90;;;;;;20813536;28;20033;-51
2021/12/21 03:02:54;;;;;;;6.32;3.00;;;0.70;99.90;;;;;;20812628;28;20099;-50
2021/12/21 03:23:21;;;;;;;6.68;3.10;;;0.80;99.90;;;;;;20795290;28;20541;-49
2021/12/21 03:33:24;;;;;;;6.55;3.42;;;0.80;99.90;;;;;;20810227;28;20037;-50
2021/12/21 03:43:29;;;;;;;7.07;3.33;;;0.80;99.90;;;;;;20760211;28;20042;-49
2021/12/21 03:53:32;;;;;;;7.28;3.75;;;0.90;99.90;;;;;;20726957;28;20033;-50
2021/12/21 04:03:35;;;;;;;6.10;3.25;;;0.90;99.90;;;;;;20725432;28;20383;-51
2021/12/21 04:13:38;;;;;;;6.18;3.45;;;0.80;99.90;;;;;;20740772;28;20478;-52
2021/12/21 04:23:42;;;;;;;9.13;3.58;;;0.80;99.90;;;;;;20805964;28;20041;-50
2021/12/21 04:33:46;;;;;;;8.30;3.15;;;0.80;99.90;;;;;;20804990;28;20092;-49
2021/12/21 04:43:51;;;;;;;5.30;2.88;;;0.80;99.90;;;;;;20804458;28;20072;-50
2021/12/21 04:53:54;;;;;;;8.55;3.08;;;0.80;99.90;;;;;;20803467;28;20098;-48
2021/12/21 05:03:57;;;;;;;9.25;3.47;;;0.80;99.90;;;;;;20804091;28;20374;-49
2021/12/21 05:13:59;;;;;;;5.85;2.80;;;0.80;99.90;;;;;;20802180;28;20108;-49
2021/12/21 05:24:02;;;;;;;4.22;2.20;;;0.70;99.90;;;;;;20801452;28;20552;-52
2021/12/21 05:34:06;;;;;;;5.03;2.25;;;0.70;99.90;;;;;;20784262;28;20045;-50
2021/12/21 05:44:08;;;;;;;6.38;2.80;;;0.70;99.90;;;;;;20800164;28;20041;-49
2021/12/21 05:54:12;;;;;;;5.28;2.35;;;0.70;99.90;;;;;;20800239;28;20091;-51
2021/12/21 06:04:14;;;;;;;5.47;2.63;;;0.70;99.90;;;;;;20807478;28;20064;-51
2021/12/21 06:34:45;;;;;;;5.55;2.35;;;0.60;99.90;;;;;;20814541;28;20046;-54
2021/12/21 06:44:54;;;;;;;5.10;2.00;;;0.60;99.90;;;;;;20813701;28;20041;-48
2021/12/21 06:54:57;;;;;;;5.45;2.63;;;0.50;99.90;;;;;;20812764;28;20041;-54
2021/12/21 07:05:00;;;;;;;6.15;2.55;;;0.50;99.90;;;;;;20812353;28;20037;-53
2021/12/21 07:25:27;;;;;;;3.90;1.63;;;0.30;99.90;;;;;;20810588;28;20529;-48
2021/12/21 07:35:30;;;;;;;3.58;1.40;;;0.40;99.90;;;;;;20809856;28;20060;-51
2021/12/21 07:45:33;;;;;;;5.28;1.85;;;0.50;99.90;;;;;;20791869;28;20095;-49
2021/12/21 07:55:38;;;;;;;2.40;0.80;;;0.40;99.90;;;;;;20808093;28;20071;-50
2021/12/21 08:05:46;;;;;;;5.22;1.00;;;0.40;99.90;;;;;;20808894;28;20471;-49
2021/12/21 08:15:49;;;;;;;5.65;1.02;;;0.50;99.90;;;;;;20773279;28;20175;-49
2021/12/21 08:25:54;;;;;;;5.15;1.33;;;0.60;99.90;;;;;;20723799;28;20034;-49
2021/12/21 08:35:56;;;;;;;3.28;1.00;;;0.70;99.90;;;;;;20726806;28;20049;-49
2021/12/21 08:46:04;;;;;;;2.92;0.73;;;0.80;99.90;;;;;;20788287;28;20536;-51
2021/12/21 08:56:06;;;;;;;2.58;1.00;;;1.10;99.90;;;;;;20757084;28;20034;-49
2021/12/21 09:06:09;;;;;;;2.47;0.60;;;1.40;99.90;;;;;;20721429;28;20030;-49
2021/12/21 09:16:11;;;;;;;2.53;0.50;;;1.70;99.90;;;;;;20720775;28;20195;-50
2021/12/21 09:26:14;;;;;;;1.42;0.55;;;1.90;99.90;;;;;;20703700;28;20084;-48
2021/12/21 09:36:17;;;;;;;1.40;0.70;;;2.30;99.90;;;;;;20725756;28;20084;-49
2021/12/21 09:46:20;;;;;;;3.28;0.75;;;2.60;99.90;;;;;;20801788;28;20406;-48
2021/12/21 09:56:23;;;;;;;2.38;0.90;;;2.70;99.90;;;;;;20800450;28;20060;-50
2021/12/21 10:06:25;;;;;;;3.22;0.77;;;2.80;99.90;;;;;;20799907;28;20064;-49
2021/12/21 10:16:28;;;;;;;10.05;1.27;;;3.10;99.90;;;;;;20799654;28;20281;-49
2021/12/21 10:26:30;;;;;;;2.15;0.80;;;3.30;99.90;;;;;;20816888;28;20564;-50
2021/12/21 10:36:47;;;;;;;4.47;0.75;;;3.50;99.90;;;;;;20798147;28;20046;-50
2021/12/21 10:46:53;;;;;;;3.30;0.88;;;3.60;99.90;;;;;;20799998;28;20037;-49
2021/12/21 10:57:04;;;;;;;3.13;1.08;;;3.70;99.90;;;;;;20812215;28;20094;-49
2021/12/21 11:17:27;;;;;;;2.97;1.17;;;3.50;99.90;;;;;;20810967;28;20049;-50
2021/12/21 11:27:32;;;;;;;3.25;1.30;;;3.30;99.90;;;;;;20811887;28;20037;-49
2021/12/21 11:37:35;;;;;;;2.25;1.00;;;3.30;99.90;;;;;;20810254;28;20054;-50
2021/12/21 11:47:47;;;;;;;6.13;1.63;;;3.20;99.90;;;;;;20662485;28;20092;-48
2021/12/21 11:57:56;;;;;;;4.10;1.58;;;3.20;99.90;;;;;;20660242;28;20038;-49
2021/12/21 12:08:03;;;;;;;6.25;1.70;;;3.30;99.90;;;;;;20661170;28;20542;-53
2021/12/21 12:18:05;;;;;;;2.47;1.55;;;3.30;99.90;;;;;;20747304;28;20045;-52
2021/12/21 12:28:08;;;;;;;3.92;1.80;;;3.40;99.90;;;;;;20806713;28;20038;-50
2021/12/21 12:38:18;;;;;;;5.00;2.40;;;3.20;99.90;;;;;;20805018;28;20572;-51
2021/12/21 12:48:38;;;;;;;6.35;3.03;;;3.00;99.90;;;;;;20804379;28;20052;-50
2021/12/21 12:59:03;;;;;;;5.47;2.67;;;2.80;99.90;;;;;;20735769;28;20088;-49
2021/12/21 13:09:09;;;;;;;4.80;2.55;;;2.60;99.90;;;;;;20721920;28;20100;-50
2021/12/21 13:19:13;;;;;;;4.63;2.17;;;2.50;99.90;;;;;;20705664;28;20108;-48
2021/12/21 13:29:21;;;;;;;5.40;3.17;;;2.40;99.90;;;;;;20719826;28;20037;-51
2021/12/21 13:39:27;;;;;;;4.82;2.83;;;2.50;99.90;;;;;;20750418;28;20049;-48
2021/12/21 13:49:30;;;;;;;4.55;2.70;;;2.40;99.90;;;;;;20800317;28;20467;-50
2021/12/21 13:59:37;;;;;;;6.03;3.38;;;2.30;99.90;;;;;;20800074;28;20042;-50
2021/12/21 14:09:39;;;;;;;6.65;3.13;;;2.00;99.90;;;;;;20799867;28;20159;-49
2021/12/21 14:19:43;;;;;;;7.25;3.80;;;1.80;99.90;;;;;;20799223;28;20041;-50
2021/12/21 14:29:46;;;;;;;7.50;3.67;;;1.60;99.90;;;;;;20813545;28;20034;-50
2021/12/21 14:39:55;;;;;;;9.07;3.92;;;1.50;99.90;;;;;;20813912;28;20041;-53
2021/12/21 14:50:08;;;;;;;12.38;4.95;;;1.40;99.90;;;;;;20813497;28;20029;-50
2021/12/21 15:00:17;;;;;;;8.63;4.15;;;1.20;99.90;;;;;;20812393;28;20029;-49
2021/12/21 15:10:26;;;;;;;6.70;4.03;;;1.00;99.90;;;;;;20811791;28;20037;-53
2021/12/21 15:20:30;;;;;;;6.60;3.72;;;0.80;99.90;;;;;;20810812;28;20064;-50
2021/12/21 15:30:34;;;;;;;6.18;3.53;;;0.60;99.90;;;;;;20810385;28;20037;-49
2021/12/21 15:40:38;;;;;;;8.45;3.75;;;0.40;99.90;;;;;;20801363;28;20104;-49
2021/12/21 15:50:40;;;;;;;12.48;5.13;;;0.30;99.90;;;;;;20727283;28;20549;-50
2021/12/21 16:00:43;;;;;;;6.97;4.07;;;0.20;99.90;;;;;;20726338;28;20068;-50
2021/12/21 16:10:45;;;;;;;8.27;4.28;;;0.00;99.90;;;;;;20725985;28;20095;-51
2021/12/21 16:20:49;;;;;;;8.57;4.18;;;-0.10;99.90;;;;;;20798452;28;20038;-48
2021/12/21 16:30:54;;;;;;;7.45;4.38;;;-0.10;99.90;;;;;;20805852;28;20025;-49
2021/12/21 16:40:57;;;;;;;12.07;4.07;;;-0.20;99.90;;;;;;20821664;28;20048;-51
2021/12/21 16:51:00;;;;;;;11.63;3.80;;;-0.10;99.90;;;;;;20799257;28;20042;-49
2021/12/21 17:01:04;;;;;;;7.97;4.22;;;-0.10;99.90;;;;;;20722176;28;20042;-52
2021/12/21 17:11:08;;;;;;;10.25;3.67;;;-0.20;99.90;;;;;;20722667;28;20088;-49
2021/12/21 17:21:11;;;;;;;6.88;3.80;;;-0.20;99.90;;;;;;20720839;28;20042;-52
2021/12/21 17:31:16;;;;;;;10.25;3.92;;;-0.20;99.90;;;;;;20719904;28;20461;-52
2021/12/21 17:41:18;;;;;;;9.57;3.70;;;-0.20;99.90;;;;;;20764537;28;20072;-51
2021/12/21 17:51:21;;;;;;;11.55;4.47;;;-0.20;99.90;;;;;;20800917;28;20095;-50
2021/12/21 18:01:24;;;;;;;6.18;3.78;;;-0.20;99.90;;;;;;20810037;28;20083;-51
2021/12/21 18:11:27;;;;;;;5.72;3.35;;;-0.30;99.90;;;;;;20816444;28;20049;-50
2021/12/21 18:21:32;;;;;;;11.32;4.72;;;-0.20;99.90;;;;;;20750331;28;20042;-49
2021/12/21 18:31:37;;;;;;;12.85;5.38;;;-0.20;99.90;;;;;;20718331;28;20038;-48
2021/12/21 18:41:40;;;;;;;8.23;4.80;;;-0.30;99.90;;;;;;20658417;28;20156;-50
2021/12/21 18:51:43;;;;;;;8.73;4.72;;;-0.40;99.90;;;;;;20658239;28;20105;-50
2021/12/21 19:01:46;;;;;;;8.85;4.55;;;-0.40;99.90;;;;;;20641657;28;20585;-53
2021/12/21 19:11:49;;;;;;;8.85;4.43;;;-0.40;99.90;;;;;;20640071;28;20050;-50
2021/12/21 19:21:53;;;;;;;10.27;4.63;;;-0.40;99.90;;;;;;20687033;28;20109;-49
2021/12/21 19:31:56;;;;;;;8.63;4.70;;;-0.40;99.90;;;;;;20729978;28;20037;-51
2021/12/21 19:41:59;;;;;;;9.43;4.30;;;-0.40;99.90;;;;;;20794528;28;20407;-49
2021/12/21 19:52:03;;;;;;;11.00;6.05;;;-0.50;99.90;;;;;;20808508;28;20486;-51
2021/12/21 20:02:05;;;;;;;8.95;4.93;;;-0.50;99.90;;;;;;20807640;28;20041;-49
2021/12/21 20:12:10;;;;;;;9.70;5.55;;;-0.50;99.90;;;;;;20807654;28;20041;-53
2021/12/21 20:22:17;;;;;;;15.50;5.40;;;-0.60;99.90;;;;;;20806319;28;20091;-51
2021/12/21 20:32:19;;;;;;;12.18;5.88;;;-0.60;99.90;;;;;;20805646;28;20029;-48
2021/12/21 20:42:22;;;;;;;16.42;8.55;;;-0.70;99.90;;;;;;20804554;28;20049;-49
2021/12/21 20:52:26;;;;;;;17.63;8.63;;;-1.00;99.90;;;;;;20804337;28;20037;-49
2021/12/21 21:02:28;;;;;;;9.10;3.85;;;-1.40;99.90;;;;;;20803392;28;20363;-49
2021/12/21 21:12:31;;;;;;;9.07;3.80;;;-1.50;99.90;;;;;;20803959;28;20087;-49
2021/12/21 21:22:35;;;;;;;11.82;6.07;;;-1.70;99.90;;;;;;20786196;28;20049;-52
2021/12/21 21:32:38;;;;;;;16.05;6.50;;;-2.00;99.90;;;;;;20801575;28;20037;-49
2021/12/21 21:42:41;;;;;;;8.73;4.35;;;-2.40;99.90;;;;;;20784924;28;20080;-49
2021/12/21 21:52:44;;;;;;;8.30;4.18;;;-2.50;99.90;;;;;;20800560;28;20033;-49
2021/12/21 22:02:48;;;;;;;5.53;2.78;;;-2.60;99.90;;;;;;20800301;28;20053;-50
2021/12/21 22:12:52;;;;;;;4.55;2.50;;;-2.50;99.90;;;;;;20800230;28;20060;-51
2021/12/21 22:22:55;;;;;;;6.45;2.50;;;-2.50;99.90;;;;;;20799629;28;20083;-48
2021/12/21 22:33:00;;;;;;;6.38;2.30;;;-2.60;99.90;;;;;;20799100;28;20038;-49
2021/12/21 22:43:03;;;;;;;7.82;2.88;;;-2.80;99.90;;;;;;20800850;28;20107;-49
2021/12/21 22:53:07;;;;;;;10.00;4.57;;;-2.70;99.90;;;;;;20813317;28;20552;-50
2021/12/21 23:03:09;;;;;;;9.15;4.60;;;-2.60;99.90;;;;;;20812753;28;20038;-49
2021/12/21 23:13:15;;;;;;;6.82;3.70;;;-2.90;99.90;;;;;;20811934;28;20087;-50
2021/12/21 23:23:18;;;;;;;9.50;3.03;;;-3.00;99.90;;;;;;20828532;28;20456;-50
2021/12/21 23:33:22;;;;;;;5.40;2.90;;;-3.00;99.90;;;;;;20810840;28;20095;-49
2021/12/21 23:43:25;;;;;;;6.57;2.72;;;-3.20;99.90;;;;;;20762859;28;20041;-49
2021/12/21 23:53:28;;;;;;;5.85;2.08;;;-3.40;99.90;;;;;;20728676;28;20479;-49
